createdAt,value
2023-03-17T00:01:17.389Z,3.98
2023-03-17T00:04:05.924Z,3.96
2023-03-17T00:06:55.124Z,3.96
2023-03-17T00:09:43.488Z,3.89
2023-03-17T00:12:34.269Z,3.89
2023-03-17T00:15:23.347Z,3.86
2023-03-17T00:18:13.303Z,3.80
2023-03-17T00:21:02.109Z,3.81
2023-03-17T00:23:51.820Z,3.83
2023-03-17T00:26:41.040Z,3.73
2023-03-17T00:29:30.767Z,3.75
2023-03-17T00:32:20.285Z,3.71
2023-03-17T00:35:18.709Z,3.68
2023-03-17T00:38:08.120Z,3.62
2023-03-17T00:40:56.429Z,3.65
2023-03-17T00:43:44.894Z,3.60
2023-03-17T00:46:37.975Z,3.57
2023-03-17T00:49:26.813Z,3.54
2023-03-17T00:52:15.448Z,3.49
2023-03-17T00:55:03.843Z,3.41
2023-03-17T00:57:52.171Z,3.41
2023-03-17T01:00:40.907Z,3.41
2023-03-17T01:03:33.082Z,3.39
2023-03-17T01:06:21.582Z,3.40
2023-03-17T01:09:13.319Z,3.39
2023-03-17T01:12:01.676Z,3.34
2023-03-17T01:14:50.096Z,3.32
2023-03-17T01:17:39.506Z,3.23
2023-03-17T01:20:31.507Z,3.18
2023-03-17T01:23:20.527Z,3.20
2023-03-17T01:26:09.596Z,3.18
2023-03-17T01:28:58.979Z,3.18
2023-03-17T01:31:47.761Z,3.16
2023-03-17T01:34:36.172Z,3.15
2023-03-17T01:37:27.034Z,3.08
2023-03-17T01:40:18.286Z,3.08
2023-03-17T01:43:20.049Z,3.05
2023-03-17T01:46:23.127Z,3.01
2023-03-17T01:49:17.084Z,2.98
2023-03-17T01:52:09.250Z,2.95
2023-03-17T01:55:03.741Z,2.92
2023-03-17T01:57:54.776Z,2.93
2023-03-17T02:00:44.019Z,2.89
2023-03-17T02:03:33.186Z,2.84
2023-03-17T02:06:22.202Z,2.84
2023-03-17T02:09:10.967Z,2.82
2023-03-17T02:12:02.119Z,2.76
2023-03-17T02:14:51.566Z,2.76
2023-03-17T02:17:39.936Z,2.77
2023-03-17T02:21:11.069Z,2.76
2023-03-17T02:24:02.269Z,2.74
2023-03-17T02:26:50.927Z,2.73
2023-03-17T02:29:39.675Z,2.70
2023-03-17T02:32:30.163Z,2.66
2023-03-17T02:35:19.095Z,2.51
2023-03-17T02:38:07.669Z,2.51
2023-03-17T02:40:57.440Z,2.49
2023-03-17T02:43:46.442Z,2.50
2023-03-17T02:46:34.759Z,2.49
2023-03-17T02:49:23.630Z,2.49
2023-03-17T02:52:12.111Z,2.50
2023-03-17T02:55:00.611Z,2.50
2023-03-17T02:57:50.265Z,2.45
2023-03-17T03:00:39.320Z,2.42
2023-03-17T03:03:27.720Z,2.43
2023-03-17T03:06:16.444Z,2.42
2023-03-17T03:09:05.687Z,2.43
2023-03-17T03:11:54.520Z,2.40
2023-03-17T03:14:44.227Z,2.40
2023-03-17T03:17:32.594Z,2.37
2023-03-17T03:20:21.240Z,2.31
2023-03-17T03:23:09.622Z,2.23
2023-03-17T03:25:58.018Z,2.29
2023-03-17T03:28:46.372Z,2.27
2023-03-17T03:31:36.057Z,2.25
2023-03-17T03:34:24.473Z,2.23
2023-03-17T03:37:12.906Z,2.21
2023-03-17T03:40:01.442Z,2.14
2023-03-17T03:42:49.845Z,1.99
2023-03-17T03:45:38.110Z,2.04
2023-03-17T03:48:27.902Z,2.11
2023-03-17T03:51:16.177Z,2.08
2023-03-17T03:54:04.736Z,2.03
2023-03-17T03:56:53.008Z,2.04
2023-03-17T03:59:41.321Z,2.05
2023-03-17T04:02:29.830Z,2.08
2023-03-17T04:05:20.419Z,2.00
2023-03-17T04:08:09.091Z,2.07
2023-03-17T04:10:57.638Z,2.04
2023-03-17T04:13:45.980Z,2.07
2023-03-17T04:16:34.505Z,2.03
2023-03-17T04:19:23.554Z,1.99
2023-03-17T04:22:13.843Z,1.96
2023-03-17T04:25:02.221Z,1.91
2023-03-17T04:27:50.990Z,1.90
2023-03-17T04:30:39.341Z,1.89
2023-03-17T04:33:27.731Z,1.92
2023-03-17T04:36:20.417Z,1.94
2023-03-17T04:39:10.829Z,1.94
2023-03-17T04:41:59.382Z,1.97
2023-03-17T04:44:47.740Z,1.93
2023-03-17T04:47:36.688Z,1.89
2023-03-17T04:50:25.168Z,1.91
2023-03-17T04:53:13.523Z,1.92
2023-03-17T04:56:03.278Z,1.95
2023-03-17T04:58:51.624Z,1.95
2023-03-17T05:01:40.185Z,1.94
2023-03-17T05:04:32.054Z,1.95
2023-03-17T05:07:20.927Z,1.95
2023-03-17T05:10:12.371Z,1.93
2023-03-17T05:13:02.649Z,1.89
2023-03-17T05:15:51.901Z,1.91
2023-03-17T05:18:41.797Z,1.93
2023-03-17T05:21:30.150Z,1.92
2023-03-17T05:24:18.598Z,1.89
2023-03-17T05:27:07.132Z,1.92
2023-03-17T05:29:56.902Z,1.86
2023-03-17T05:32:45.658Z,1.85
2023-03-17T05:35:34.242Z,1.92
2023-03-17T05:38:22.635Z,1.92
2023-03-17T05:41:12.288Z,1.92
2023-03-17T05:44:00.928Z,1.86
2023-03-17T05:46:51.248Z,1.89
2023-03-17T05:49:39.698Z,1.90
2023-03-17T05:52:28.357Z,1.92
2023-03-17T05:55:17.571Z,1.94
2023-03-17T05:58:06.663Z,1.92
2023-03-17T06:00:55.315Z,1.99
2023-03-17T06:03:45.199Z,2.01
2023-03-17T06:06:33.964Z,2.08
2023-03-17T06:09:22.381Z,2.07
2023-03-17T06:12:11.415Z,2.13
2023-03-17T06:14:59.830Z,2.07
2023-03-17T06:17:48.402Z,2.12
2023-03-17T06:20:38.205Z,2.20
2023-03-17T06:23:26.581Z,2.24
2023-03-17T06:26:15.067Z,2.24
2023-03-17T06:29:03.516Z,2.28
2023-03-17T06:31:52.401Z,2.32
2023-03-17T06:34:41.910Z,2.31
2023-03-17T06:37:31.783Z,2.35
2023-03-17T06:40:20.258Z,2.37
2023-03-17T06:43:09.939Z,2.36
2023-03-17T06:45:58.268Z,2.35
2023-03-17T06:48:46.637Z,2.35
2023-03-17T06:51:37.225Z,2.44
2023-03-17T06:54:27.284Z,2.44
2023-03-17T06:57:15.911Z,2.43
2023-03-17T07:00:06.369Z,2.46
2023-03-17T07:02:54.805Z,2.49
2023-03-17T07:05:43.615Z,2.50
2023-03-17T07:08:32.040Z,2.51
2023-03-17T07:11:23.616Z,2.57
2023-03-17T07:14:12.183Z,2.59
2023-03-17T07:17:00.911Z,2.65
2023-03-17T07:19:49.635Z,2.71
2023-03-17T07:22:38.059Z,2.76
2023-03-17T07:25:26.512Z,2.80
2023-03-17T07:28:16.869Z,2.85
2023-03-17T07:31:07.883Z,2.81
2023-03-17T07:33:57.478Z,2.97
2023-03-17T07:36:46.086Z,3.00
2023-03-17T07:39:34.820Z,3.11
2023-03-17T07:42:23.233Z,3.21
2023-03-17T07:45:13.396Z,3.29
2023-03-17T07:48:01.779Z,3.43
2023-03-17T07:50:50.833Z,3.53
2023-03-17T07:53:39.186Z,3.63
2023-03-17T07:56:27.595Z,3.68
2023-03-17T07:59:16.095Z,3.74
2023-03-17T08:02:06.758Z,3.82
2023-03-17T08:04:55.221Z,3.89
2023-03-17T08:07:43.867Z,3.99
2023-03-17T08:10:33.913Z,4.09
2023-03-17T08:13:22.511Z,4.23
2023-03-17T08:16:11.069Z,4.29
2023-03-17T08:19:01.050Z,4.40
2023-03-17T08:21:49.634Z,4.51
2023-03-17T08:24:39.712Z,4.62
2023-03-17T08:27:28.158Z,4.79
2023-03-17T08:30:17.275Z,4.92
2023-03-17T08:33:06.112Z,5.02
2023-03-17T08:35:57.951Z,5.14
2023-03-17T08:38:47.213Z,5.25
2023-03-17T08:41:36.956Z,5.39
2023-03-17T08:44:25.379Z,5.49
2023-03-17T08:47:13.840Z,5.62
2023-03-17T08:50:02.300Z,5.72
2023-03-17T08:52:54.329Z,5.82
2023-03-17T08:55:42.726Z,5.89
2023-03-17T08:58:31.309Z,6.09
2023-03-17T09:01:21.035Z,6.22
2023-03-17T09:04:09.815Z,6.36
2023-03-17T09:07:03.854Z,6.38
2023-03-17T09:09:54.032Z,6.52
2023-03-17T09:12:42.807Z,6.66
2023-03-17T09:15:32.246Z,6.80
2023-03-17T09:18:22.184Z,6.84
2023-03-17T09:21:11.778Z,6.87
2023-03-17T09:24:02.452Z,7.04
2023-03-17T09:26:52.441Z,7.17
2023-03-17T09:29:41.237Z,7.33
2023-03-17T09:32:29.604Z,7.46
2023-03-17T09:35:18.008Z,7.54
2023-03-17T09:38:06.974Z,7.58
2023-03-17T09:40:59.048Z,7.61
2023-03-17T09:43:53.334Z,7.87
2023-03-17T09:46:47.419Z,7.97
2023-03-17T09:49:39.498Z,8.06
2023-03-17T09:52:29.762Z,8.14
2023-03-17T09:55:23.984Z,8.39
2023-03-17T09:58:12.990Z,8.81
2023-03-17T10:01:05.174Z,8.90
2023-03-17T10:03:53.645Z,8.91
2023-03-17T10:06:44.171Z,9.00
2023-03-17T10:09:37.117Z,9.17
2023-03-17T10:12:32.885Z,9.32
2023-03-17T10:15:25.328Z,9.38
2023-03-17T10:18:16.716Z,9.51
2023-03-17T10:21:07.936Z,9.67
2023-03-17T10:23:57.521Z,9.95
2023-03-17T10:26:48.442Z,10.02
2023-03-17T10:29:37.094Z,10.17
2023-03-17T10:32:25.716Z,10.29
2023-03-17T10:35:16.183Z,10.37
2023-03-17T10:38:16.250Z,10.60
2023-03-17T10:41:09.871Z,10.74
2023-03-17T10:43:59.390Z,10.84
2023-03-17T10:46:54.429Z,10.90
2023-03-17T10:49:46.129Z,10.95
2023-03-17T10:52:39.635Z,11.05
2023-03-17T10:55:30.921Z,11.20
2023-03-17T10:58:21.790Z,11.29
2023-03-17T11:01:20.075Z,11.33
2023-03-17T11:04:30.304Z,11.35
2023-03-17T11:07:20.293Z,11.49
2023-03-17T11:10:20.374Z,11.55
2023-03-17T11:13:09.505Z,11.57
2023-03-17T11:16:08.622Z,11.66
2023-03-17T11:18:59.804Z,11.68
2023-03-17T11:21:55.684Z,11.68
2023-03-17T11:24:53.799Z,11.84
2023-03-17T11:27:47.106Z,12.00
2023-03-17T11:30:36.911Z,12.10
2023-03-17T11:33:36.346Z,12.07
2023-03-17T11:36:37.303Z,12.20
2023-03-17T11:39:28.305Z,12.23
2023-03-17T11:42:23.341Z,12.25
2023-03-17T11:45:19.077Z,12.39
2023-03-17T11:48:15.552Z,12.44
2023-03-17T11:51:08.328Z,12.50
2023-03-17T11:54:04.636Z,12.60
2023-03-17T11:56:55.748Z,12.57
2023-03-17T11:59:52.053Z,12.65
2023-03-17T12:02:45.826Z,12.81
2023-03-17T12:05:35.868Z,12.82
2023-03-17T12:08:30.531Z,12.90
2023-03-17T12:11:23.204Z,12.97
2023-03-17T12:14:24.079Z,13.12
2023-03-17T12:17:18.530Z,13.09
2023-03-17T12:20:16.430Z,13.21
2023-03-17T12:23:10.478Z,13.22
2023-03-17T12:26:01.663Z,13.31
2023-03-17T12:28:52.922Z,13.51
2023-03-17T12:31:45.766Z,13.74
2023-03-17T12:34:40.474Z,13.73
2023-03-17T12:37:31.122Z,13.62
2023-03-17T12:40:21.376Z,13.74
2023-03-17T12:43:27.820Z,13.86
2023-03-17T12:46:42.134Z,13.99
2023-03-17T12:49:45.185Z,13.85
2023-03-17T12:52:43.966Z,13.95
2023-03-17T12:55:33.880Z,14.05
2023-03-17T12:58:29.479Z,14.10
2023-03-17T13:01:26.448Z,14.15
2023-03-17T13:04:18.728Z,14.25
2023-03-17T13:07:12.508Z,14.35
2023-03-17T13:10:22.240Z,14.21
2023-03-17T13:13:23.288Z,14.38
2023-03-17T13:16:28.022Z,14.40
2023-03-17T13:19:20.187Z,14.57
2023-03-17T13:22:36.435Z,14.58
2023-03-17T13:25:33.441Z,14.52
2023-03-17T13:28:27.076Z,14.63
2023-03-17T13:31:31.761Z,14.82
2023-03-17T13:34:21.628Z,14.98
2023-03-17T13:37:19.368Z,15.06
2023-03-17T13:40:15.677Z,15.05
2023-03-17T13:43:15.045Z,15.08
2023-03-17T13:46:25.507Z,15.10
2023-03-17T13:49:26.582Z,15.12
2023-03-17T13:52:17.548Z,15.02
2023-03-17T13:55:37.928Z,15.05
2023-03-17T13:58:27.476Z,15.06
2023-03-17T14:01:16.461Z,14.99
2023-03-17T14:04:10.649Z,15.16
2023-03-17T14:07:01.058Z,15.21
2023-03-17T14:09:53.353Z,15.36
2023-03-17T14:12:46.410Z,15.47
2023-03-17T14:15:42.023Z,15.34
2023-03-17T14:18:32.387Z,15.32
2023-03-17T14:21:23.490Z,15.46
2023-03-17T14:24:23.490Z,15.45
2023-03-17T14:27:15.128Z,15.61
2023-03-17T14:30:10.795Z,15.71
2023-03-17T14:33:03.099Z,15.77
2023-03-17T14:35:53.903Z,15.65
2023-03-17T14:38:49.009Z,15.65
2023-03-17T14:41:37.685Z,15.83
2023-03-17T14:44:26.052Z,15.86
2023-03-17T14:47:20.499Z,16.02
2023-03-17T14:50:16.843Z,16.12
2023-03-17T14:53:05.349Z,15.95
2023-03-17T14:55:54.308Z,16.11
2023-03-17T14:58:44.809Z,16.10
2023-03-17T15:01:36.348Z,16.30
2023-03-17T15:04:28.021Z,16.13
2023-03-17T15:07:30.394Z,16.20
2023-03-17T15:10:20.501Z,16.28
2023-03-17T15:13:12.028Z,16.23
2023-03-17T15:16:03.956Z,15.92
2023-03-17T15:18:58.655Z,15.91
2023-03-17T15:21:48.646Z,15.95
2023-03-17T15:24:40.009Z,16.11
2023-03-17T15:27:29.041Z,16.13
2023-03-17T15:30:18.616Z,15.97
2023-03-17T15:33:18.995Z,15.80
2023-03-17T15:36:07.713Z,15.85
2023-03-17T15:38:57.493Z,15.94
2023-03-17T15:41:45.967Z,16.10
2023-03-17T15:44:34.335Z,15.86
2023-03-17T15:47:25.576Z,15.80
2023-03-17T15:50:17.909Z,15.85
2023-03-17T15:53:06.248Z,15.87
2023-03-17T15:55:56.414Z,15.96
2023-03-17T15:58:44.742Z,16.03
2023-03-17T16:01:33.161Z,15.93
2023-03-17T16:04:21.660Z,15.88
2023-03-17T16:07:12.963Z,15.70
2023-03-17T16:10:01.358Z,15.50
2023-03-17T16:12:51.780Z,15.34
2023-03-17T16:15:42.089Z,15.36
2023-03-17T16:18:34.000Z,15.33
2023-03-17T16:21:22.901Z,15.45
2023-03-17T16:24:18.561Z,15.31
2023-03-17T16:27:15.009Z,15.11
2023-03-17T16:30:06.062Z,15.23
2023-03-17T16:32:56.429Z,14.94
2023-03-17T16:35:45.309Z,15.01
2023-03-17T16:38:34.988Z,15.04
2023-03-17T16:41:25.188Z,14.90
2023-03-17T16:44:13.937Z,14.75
2023-03-17T16:47:04.042Z,14.60
2023-03-17T16:49:52.584Z,14.68
2023-03-17T16:52:40.955Z,14.67
2023-03-17T16:55:30.185Z,14.57
2023-03-17T16:58:20.703Z,14.49
2023-03-17T17:01:13.968Z,14.49
2023-03-17T17:04:03.855Z,14.46
2023-03-17T17:06:52.578Z,14.26
2023-03-17T17:09:41.294Z,14.12
2023-03-17T17:12:29.776Z,14.06
2023-03-17T17:15:19.613Z,14.07
2023-03-17T17:18:12.363Z,13.78
2023-03-17T17:21:03.849Z,13.84
2023-03-17T17:23:53.138Z,13.83
2023-03-17T17:26:41.760Z,13.71
2023-03-17T17:29:32.355Z,13.67
2023-03-17T17:32:23.614Z,13.51
2023-03-17T17:35:12.507Z,13.42
2023-03-17T17:38:02.489Z,13.35
2023-03-17T17:40:51.354Z,13.15
2023-03-17T17:43:39.966Z,13.28
2023-03-17T17:46:28.463Z,13.26
2023-03-17T17:49:16.866Z,13.19
2023-03-17T17:52:05.857Z,13.03
2023-03-17T17:54:55.617Z,12.96
2023-03-17T17:57:44.230Z,12.81
2023-03-17T18:00:33.401Z,12.79
2023-03-17T18:03:25.162Z,12.80
2023-03-17T18:06:14.043Z,12.60
2023-03-17T18:09:02.594Z,12.44
2023-03-17T18:11:52.387Z,12.46
2023-03-17T18:14:41.054Z,12.45
2023-03-17T18:17:31.997Z,12.40
2023-03-17T18:20:22.490Z,12.42
2023-03-17T18:23:11.300Z,12.44
2023-03-17T18:26:00.877Z,12.39
2023-03-17T18:28:51.557Z,12.30
2023-03-17T18:31:42.791Z,12.26
2023-03-17T18:34:36.872Z,12.25
2023-03-17T18:37:25.333Z,12.18
2023-03-17T18:40:18.087Z,12.10
2023-03-17T18:43:07.281Z,12.11
2023-03-17T18:45:57.143Z,12.08
2023-03-17T18:48:45.563Z,12.00
2023-03-17T18:51:33.994Z,11.95
2023-03-17T18:54:22.757Z,11.91
2023-03-17T18:57:11.134Z,11.86
2023-03-17T18:59:59.587Z,11.74
2023-03-17T19:02:49.325Z,11.72
2023-03-17T19:05:39.471Z,11.69
2023-03-17T19:08:27.870Z,11.65
2023-03-17T19:11:18.987Z,11.58
2023-03-17T19:14:08.407Z,11.57
2023-03-17T19:16:56.879Z,11.54
2023-03-17T19:19:46.791Z,11.49
2023-03-17T19:22:35.800Z,11.42
2023-03-17T19:25:24.547Z,11.38
2023-03-17T19:28:12.941Z,11.36
2023-03-17T19:31:01.772Z,11.29
2023-03-17T19:33:50.172Z,11.24
2023-03-17T19:36:41.659Z,11.23
2023-03-17T19:39:31.338Z,11.16
2023-03-17T19:42:19.850Z,11.09
2023-03-17T19:45:09.418Z,11.01
2023-03-17T19:47:59.929Z,10.98
2023-03-17T19:50:48.299Z,10.90
2023-03-17T19:53:38.424Z,10.71
2023-03-17T19:56:28.973Z,10.67
2023-03-17T19:59:19.118Z,10.64
2023-03-17T20:02:08.185Z,10.62
2023-03-17T20:04:56.813Z,10.54
2023-03-17T20:07:46.494Z,10.45
2023-03-17T20:10:36.397Z,10.40
2023-03-17T20:13:24.883Z,10.30
2023-03-17T20:16:14.388Z,10.29
2023-03-17T20:19:03.550Z,10.29
2023-03-17T20:21:52.526Z,10.27
2023-03-17T20:24:40.903Z,10.27
2023-03-17T20:27:32.168Z,10.20
2023-03-17T20:30:20.938Z,10.17
2023-03-17T20:33:10.903Z,10.18
2023-03-17T20:35:59.399Z,10.11
2023-03-17T20:38:47.921Z,9.82
2023-03-17T20:41:37.065Z,9.68
2023-03-17T20:44:26.818Z,9.70
2023-03-17T20:47:15.164Z,9.53
2023-03-17T20:50:04.600Z,9.08
2023-03-17T20:52:53.103Z,8.77
2023-03-17T20:55:43.241Z,8.49
2023-03-17T20:58:31.681Z,8.09
2023-03-17T21:01:23.322Z,8.16
2023-03-17T21:04:15.698Z,7.81
2023-03-17T21:07:04.763Z,7.97
2023-03-17T21:09:56.459Z,7.99
2023-03-17T21:12:45.019Z,7.51
2023-03-17T21:15:33.609Z,6.95
2023-03-17T21:18:23.824Z,6.66
2023-03-17T21:21:12.233Z,6.72
2023-03-17T21:24:02.131Z,6.97
2023-03-17T21:26:50.683Z,6.93
2023-03-17T21:29:40.103Z,7.17
2023-03-17T21:32:28.572Z,7.41
2023-03-17T21:35:18.471Z,7.47
2023-03-17T21:38:06.859Z,7.61
2023-03-17T21:40:55.371Z,7.69
2023-03-17T21:43:44.081Z,7.76
2023-03-17T21:46:33.602Z,7.80
2023-03-17T21:49:23.111Z,7.81
2023-03-17T21:52:14.894Z,7.88
2023-03-17T21:55:03.319Z,7.94
2023-03-17T21:57:51.723Z,7.93
2023-03-17T22:00:45.522Z,7.91
2023-03-17T22:03:34.549Z,7.92
2023-03-17T22:06:24.850Z,7.88
2023-03-17T22:09:16.108Z,7.86
2023-03-17T22:12:06.982Z,7.85
2023-03-17T22:14:58.292Z,7.22
2023-03-17T22:17:47.176Z,6.48
2023-03-17T22:20:35.804Z,6.26
2023-03-17T22:23:25.619Z,6.50
2023-03-17T22:26:18.293Z,6.70
2023-03-17T22:29:06.692Z,6.83
2023-03-17T22:31:55.051Z,6.88
2023-03-17T22:34:43.718Z,6.95
2023-03-17T22:37:32.209Z,6.89
2023-03-17T22:40:20.778Z,6.92
2023-03-17T22:43:11.154Z,6.96
2023-03-17T22:45:59.593Z,7.00
2023-03-17T22:48:48.308Z,7.05
2023-03-17T22:51:37.223Z,7.04
2023-03-17T22:54:25.649Z,7.00
2023-03-17T22:57:14.053Z,6.63
2023-03-17T23:00:06.151Z,6.06
2023-03-17T23:02:54.509Z,5.60
2023-03-17T23:05:46.248Z,5.54
2023-03-17T23:08:37.470Z,5.27
2023-03-17T23:11:28.062Z,5.46
2023-03-17T23:14:16.463Z,5.72
2023-03-17T23:17:07.524Z,5.90
2023-03-17T23:19:56.047Z,5.98
2023-03-17T23:22:44.553Z,6.02
2023-03-17T23:25:33.075Z,6.13
2023-03-17T23:28:21.807Z,5.82
2023-03-17T23:31:11.129Z,5.73
2023-03-17T23:34:01.781Z,5.89
2023-03-17T23:36:50.651Z,5.93
2023-03-17T23:39:40.366Z,5.89
2023-03-17T23:42:29.173Z,5.45
2023-03-17T23:45:18.464Z,5.10
2023-03-17T23:48:07.642Z,4.63
2023-03-17T23:50:57.567Z,4.48
2023-03-17T23:53:46.441Z,4.83
2023-03-17T23:56:34.870Z,5.09
2023-03-17T23:59:23.309Z,4.92
